createdAt,value
2023-02-23T00:00:01.109Z,21.80
2023-02-23T00:02:55.883Z,21.70
2023-02-23T00:05:48.919Z,21.70
2023-02-23T00:08:42.900Z,21.70
2023-02-23T00:11:36.279Z,21.70
2023-02-23T00:14:31.938Z,21.70
2023-02-23T00:17:24.745Z,21.70
2023-02-23T00:20:18.573Z,21.70
2023-02-23T00:23:11.628Z,21.60
2023-02-23T00:26:05.225Z,21.60
2023-02-23T00:28:59.932Z,21.60
2023-02-23T00:31:56.044Z,21.60
2023-02-23T00:34:50.363Z,21.60
2023-02-23T00:37:45.246Z,21.60
2023-02-23T00:40:42.994Z,21.60
2023-02-23T00:43:37.162Z,21.60
2023-02-23T00:46:31.520Z,21.60
2023-02-23T00:49:26.946Z,21.50
2023-02-23T00:52:20.223Z,21.60
2023-02-23T00:55:15.914Z,21.60
2023-02-23T00:58:09.671Z,21.50
2023-02-23T01:01:02.722Z,21.50
2023-02-23T01:03:56.051Z,21.50
2023-02-23T01:06:50.282Z,21.50
2023-02-23T01:09:43.981Z,21.50
2023-02-23T01:12:36.747Z,21.50
2023-02-23T01:15:29.948Z,21.50
2023-02-23T01:18:22.738Z,21.50
2023-02-23T01:21:18.337Z,21.50
2023-02-23T01:24:13.819Z,21.40
2023-02-23T01:27:06.696Z,21.50
2023-02-23T01:29:59.916Z,21.50
2023-02-23T01:32:53.187Z,21.50
2023-02-23T01:35:45.996Z,21.40
2023-02-23T01:38:38.934Z,21.40
2023-02-23T01:41:33.817Z,21.50
2023-02-23T01:45:18.812Z,21.40
2023-02-23T01:48:16.078Z,21.40
2023-02-23T01:51:10.808Z,21.40
2023-02-23T01:54:10.218Z,21.40
2023-02-23T01:57:06.107Z,21.40
2023-02-23T01:59:59.928Z,21.40
2023-02-23T02:02:53.330Z,21.40
2023-02-23T02:05:49.650Z,21.40
2023-02-23T02:08:47.177Z,21.40
2023-02-23T02:11:44.344Z,21.40
2023-02-23T02:14:39.649Z,21.40
2023-02-23T02:17:37.365Z,21.30
2023-02-23T02:21:04.446Z,21.40
2023-02-23T02:24:26.041Z,21.30
2023-02-23T02:27:34.851Z,21.30
2023-02-23T02:30:49.372Z,21.30
2023-02-23T02:34:15.795Z,21.30
2023-02-23T02:37:39.022Z,21.30
2023-02-23T02:40:53.109Z,21.30
2023-02-23T02:43:50.938Z,21.30
2023-02-23T02:46:48.598Z,21.30
2023-02-23T02:49:48.446Z,21.30
2023-02-23T02:52:49.737Z,21.30
2023-02-23T02:55:44.886Z,21.30
2023-02-23T02:58:43.394Z,21.30
2023-02-23T03:01:54.066Z,21.30
2023-02-23T03:05:04.322Z,21.30
2023-02-23T03:08:27.145Z,21.30
2023-02-23T03:11:37.481Z,21.20
2023-02-23T03:14:56.298Z,21.30
2023-02-23T03:18:10.465Z,21.30
2023-02-23T03:21:30.084Z,21.20
2023-02-23T03:24:50.317Z,21.20
2023-02-23T03:28:05.441Z,21.20
2023-02-23T03:31:24.306Z,21.20
2023-02-23T03:34:37.262Z,21.20
2023-02-23T03:37:58.061Z,21.20
2023-02-23T03:41:12.616Z,21.20
2023-02-23T03:44:29.844Z,21.20
2023-02-23T03:47:45.895Z,21.20
2023-02-23T03:51:00.363Z,21.20
2023-02-23T03:54:17.924Z,21.20
2023-02-23T03:57:32.420Z,21.10
2023-02-23T04:00:48.799Z,21.20
2023-02-23T04:04:03.155Z,21.20
2023-02-23T04:07:15.964Z,21.20
2023-02-23T04:10:28.509Z,21.10
2023-02-23T04:13:26.228Z,21.10
2023-02-23T04:16:18.486Z,21.10
2023-02-23T04:19:12.557Z,21.10
2023-02-23T04:22:06.089Z,21.10
2023-02-23T04:24:59.023Z,21.10
2023-02-23T04:27:51.934Z,21.10
2023-02-23T04:30:46.578Z,21.10
2023-02-23T04:33:39.830Z,21.10
2023-02-23T04:36:32.899Z,21.10
2023-02-23T04:39:26.373Z,21.10
2023-02-23T04:42:19.419Z,21.10
2023-02-23T04:45:13.419Z,21.10
2023-02-23T04:48:09.185Z,21.10
2023-02-23T04:51:02.241Z,21.10
2023-02-23T04:53:54.859Z,21.10
2023-02-23T04:56:48.361Z,21.10
2023-02-23T04:59:41.506Z,21.10
2023-02-23T05:02:35.188Z,21.10
2023-02-23T05:05:29.314Z,21.10
2023-02-23T05:08:22.322Z,21.10
2023-02-23T05:11:15.152Z,21.10
2023-02-23T05:14:08.242Z,21.10
2023-02-23T05:17:00.903Z,21.10
2023-02-23T05:19:54.498Z,21.10
2023-02-23T05:22:49.621Z,21.10
2023-02-23T05:25:43.368Z,21.10
2023-02-23T05:28:37.260Z,21.10
2023-02-23T05:31:30.832Z,21.00
2023-02-23T05:34:24.008Z,21.00
2023-02-23T05:37:17.185Z,21.00
2023-02-23T05:40:13.105Z,21.00
2023-02-23T05:43:06.034Z,21.00
2023-02-23T05:45:59.228Z,21.00
2023-02-23T05:48:53.127Z,21.00
2023-02-23T05:51:46.042Z,21.00
2023-02-23T05:54:39.012Z,21.00
2023-02-23T05:57:33.858Z,21.00
2023-02-23T06:00:27.161Z,21.00
2023-02-23T06:03:20.222Z,21.00
2023-02-23T06:06:13.333Z,21.00
2023-02-23T06:09:05.998Z,21.00
2023-02-23T06:12:00.749Z,21.00
2023-02-23T06:14:55.678Z,21.00
2023-02-23T06:17:49.045Z,21.00
2023-02-23T06:20:42.313Z,21.00
2023-02-23T06:23:34.937Z,21.00
2023-02-23T06:26:28.362Z,20.90
2023-02-23T06:29:21.228Z,21.00
2023-02-23T06:32:15.799Z,21.00
2023-02-23T06:35:09.985Z,20.90
2023-02-23T06:38:03.704Z,20.90
2023-02-23T06:40:57.150Z,21.00
2023-02-23T06:43:50.304Z,20.90
2023-02-23T06:46:43.355Z,20.90
2023-02-23T06:49:37.472Z,20.90
2023-02-23T06:52:30.569Z,20.90
2023-02-23T06:55:24.111Z,20.90
2023-02-23T06:58:17.569Z,20.90
2023-02-23T07:01:12.258Z,20.90
2023-02-23T07:04:05.448Z,20.90
2023-02-23T07:06:59.716Z,20.90
2023-02-23T07:09:53.355Z,20.90
2023-02-23T07:12:49.355Z,20.90
2023-02-23T07:15:42.542Z,20.90
2023-02-23T07:18:36.464Z,20.90
2023-02-23T07:21:28.935Z,20.90
2023-02-23T07:24:23.731Z,20.90
2023-02-23T07:27:17.369Z,20.90
2023-02-23T07:30:11.539Z,20.90
2023-02-23T07:33:05.171Z,20.90
2023-02-23T07:35:58.020Z,20.90
2023-02-23T07:38:51.587Z,20.90
2023-02-23T07:41:46.481Z,20.90
2023-02-23T07:44:39.429Z,20.90
2023-02-23T07:47:32.712Z,20.90
2023-02-23T07:50:26.381Z,20.90
2023-02-23T07:53:19.529Z,20.90
2023-02-23T07:56:13.965Z,20.90
2023-02-23T07:59:08.510Z,20.90
2023-02-23T08:02:01.932Z,20.90
2023-02-23T08:04:55.132Z,20.90
2023-02-23T08:07:48.257Z,20.90
2023-02-23T08:10:41.038Z,20.80
2023-02-23T08:13:36.045Z,20.90
2023-02-23T08:16:31.218Z,20.80
2023-02-23T08:19:24.277Z,20.80
2023-02-23T08:22:17.188Z,20.80
2023-02-23T08:25:11.226Z,20.80
2023-02-23T08:28:06.863Z,20.80
2023-02-23T08:31:00.780Z,20.80
2023-02-23T08:33:55.348Z,20.80
2023-02-23T08:36:48.132Z,20.80
2023-02-23T08:39:43.398Z,20.90
2023-02-23T08:42:37.898Z,20.80
2023-02-23T08:45:31.377Z,20.80
2023-02-23T08:48:24.612Z,20.80
2023-02-23T08:51:20.070Z,20.80
2023-02-23T08:54:14.893Z,20.80
2023-02-23T08:57:08.263Z,20.80
2023-02-23T09:00:01.738Z,20.80
2023-02-23T09:02:55.334Z,20.80
2023-02-23T09:05:48.451Z,20.80
2023-02-23T09:08:43.188Z,20.80
2023-02-23T09:11:36.373Z,21.00
2023-02-23T09:14:30.108Z,21.00
2023-02-23T09:17:24.007Z,21.10
2023-02-23T09:20:26.701Z,21.20
2023-02-23T09:23:20.128Z,21.20
2023-02-23T09:26:14.637Z,21.30
2023-02-23T09:29:08.769Z,21.40
2023-02-23T09:32:02.504Z,21.40
2023-02-23T09:34:55.250Z,21.50
2023-02-23T09:37:49.776Z,21.50
2023-02-23T09:40:48.673Z,21.50
2023-02-23T09:43:51.291Z,21.50
2023-02-23T09:46:50.266Z,21.60
2023-02-23T09:49:46.598Z,21.60
2023-02-23T09:52:44.863Z,21.60
2023-02-23T09:55:42.814Z,21.60
2023-02-23T09:58:36.790Z,21.60
2023-02-23T10:01:52.410Z,21.60
2023-02-23T10:04:48.138Z,21.60
2023-02-23T10:07:47.141Z,21.60
2023-02-23T10:10:48.430Z,21.60
2023-02-23T10:13:53.914Z,21.60
2023-02-23T10:17:00.902Z,21.60
2023-02-23T10:20:02.292Z,21.60
2023-02-23T10:22:58.121Z,21.60
2023-02-23T10:25:52.965Z,21.60
2023-02-23T10:28:46.977Z,21.50
2023-02-23T10:31:46.102Z,21.50
2023-02-23T10:34:40.914Z,21.50
2023-02-23T10:37:34.152Z,21.60
2023-02-23T10:40:29.567Z,21.60
2023-02-23T10:43:22.734Z,21.50
2023-02-23T10:46:23.122Z,21.60
2023-02-23T10:49:22.580Z,21.60
2023-02-23T10:52:22.669Z,21.60
2023-02-23T10:55:25.286Z,21.60
2023-02-23T10:58:20.962Z,21.60
2023-02-23T11:01:15.682Z,21.60
2023-02-23T11:04:19.062Z,21.60
2023-02-23T11:07:19.835Z,21.60
2023-02-23T11:10:27.542Z,21.60
2023-02-23T11:13:24.160Z,21.60
2023-02-23T11:16:20.127Z,21.50
2023-02-23T11:19:26.305Z,21.50
2023-02-23T11:22:23.270Z,21.50
2023-02-23T11:25:22.681Z,21.50
2023-02-23T11:28:20.933Z,21.50
2023-02-23T11:31:18.220Z,21.50
2023-02-23T11:34:22.456Z,21.40
2023-02-23T11:37:23.572Z,21.40
2023-02-23T11:40:22.839Z,21.50
2023-02-23T11:43:16.927Z,21.60
2023-02-23T11:46:10.726Z,21.70
2023-02-23T11:49:07.765Z,21.80
2023-02-23T11:52:01.440Z,21.80
2023-02-23T11:54:58.589Z,21.90
2023-02-23T11:57:53.057Z,21.90
2023-02-23T12:00:56.970Z,21.90
2023-02-23T12:03:52.689Z,21.90
2023-02-23T12:06:45.408Z,21.90
2023-02-23T12:09:38.837Z,22.00
2023-02-23T12:12:45.237Z,22.00
2023-02-23T12:15:44.870Z,21.90
2023-02-23T12:18:45.332Z,22.00
2023-02-23T12:21:42.894Z,21.90
2023-02-23T12:24:44.787Z,21.90
2023-02-23T12:27:43.906Z,21.90
2023-02-23T12:30:44.733Z,21.90
2023-02-23T12:33:41.555Z,21.90
2023-02-23T12:36:40.619Z,21.90
2023-02-23T12:39:37.087Z,21.80
2023-02-23T12:42:40.628Z,21.80
2023-02-23T12:45:38.297Z,21.80
2023-02-23T12:48:39.965Z,21.80
2023-02-23T12:51:37.442Z,21.80
2023-02-23T12:54:30.569Z,21.80
2023-02-23T12:57:31.251Z,21.80
2023-02-23T13:00:41.096Z,21.80
2023-02-23T13:03:59.580Z,21.80
2023-02-23T13:07:00.337Z,22.00
2023-02-23T13:10:06.535Z,22.00
2023-02-23T13:13:11.348Z,22.10
2023-02-23T13:16:12.707Z,22.10
2023-02-23T13:19:15.239Z,22.20
2023-02-23T13:22:28.451Z,22.30
2023-02-23T13:25:33.919Z,22.30
2023-02-23T13:28:37.397Z,22.40
2023-02-23T13:31:35.374Z,22.40
2023-02-23T13:34:31.717Z,22.50
2023-02-23T13:37:29.214Z,22.50
2023-02-23T13:40:32.127Z,22.50
2023-02-23T13:43:30.394Z,22.50
2023-02-23T13:46:37.210Z,22.60
2023-02-23T13:49:39.638Z,22.60
2023-02-23T13:52:39.650Z,22.60
2023-02-23T13:55:49.550Z,22.60
2023-02-23T13:58:48.621Z,22.60
2023-02-23T14:01:47.586Z,22.60
2023-02-23T14:04:42.894Z,22.60
2023-02-23T14:07:42.937Z,22.50
2023-02-23T14:10:41.096Z,22.50
2023-02-23T14:13:40.168Z,22.50
2023-02-23T14:16:33.462Z,22.50
2023-02-23T14:19:39.904Z,22.60
2023-02-23T14:22:35.326Z,22.60
2023-02-23T14:25:48.609Z,22.50
2023-02-23T14:28:43.969Z,22.50
2023-02-23T14:31:37.910Z,22.50
2023-02-23T14:34:48.337Z,22.40
2023-02-23T14:37:42.456Z,22.40
2023-02-23T14:40:41.602Z,22.40
2023-02-23T14:43:43.230Z,22.40
2023-02-23T14:46:38.353Z,22.40
2023-02-23T14:49:34.990Z,22.40
2023-02-23T14:52:34.092Z,22.40
2023-02-23T14:55:29.779Z,22.40
2023-02-23T14:58:23.689Z,22.40
2023-02-23T15:01:33.897Z,22.50
2023-02-23T15:04:31.308Z,22.50
2023-02-23T15:07:37.289Z,22.50
2023-02-23T15:10:34.090Z,22.60
2023-02-23T15:13:30.069Z,22.60
2023-02-23T15:16:29.992Z,22.60
2023-02-23T15:19:26.822Z,22.60
2023-02-23T15:22:28.482Z,22.60
2023-02-23T15:25:26.198Z,22.60
2023-02-23T15:28:23.223Z,22.60
2023-02-23T15:31:17.142Z,22.60
2023-02-23T15:34:12.325Z,22.60
2023-02-23T15:37:13.062Z,22.60
2023-02-23T15:40:11.218Z,22.60
2023-02-23T15:43:06.858Z,22.60
2023-02-23T15:46:04.293Z,22.50
2023-02-23T15:49:03.292Z,22.50
2023-02-23T15:52:01.193Z,22.50
2023-02-23T15:55:01.636Z,22.50
2023-02-23T15:57:56.804Z,22.50
2023-02-23T16:00:56.928Z,22.40
2023-02-23T16:04:01.837Z,22.50
2023-02-23T16:06:57.067Z,22.40
2023-02-23T16:09:53.505Z,22.40
2023-02-23T16:12:50.723Z,22.40
2023-02-23T16:15:44.497Z,22.30
2023-02-23T16:18:42.139Z,22.30
2023-02-23T16:21:39.650Z,22.40
2023-02-23T16:24:33.058Z,22.50
2023-02-23T16:27:27.830Z,22.50
2023-02-23T16:30:24.707Z,22.60
2023-02-23T16:33:22.723Z,22.60
2023-02-23T16:36:21.773Z,22.70
2023-02-23T16:39:17.489Z,22.80
2023-02-23T16:42:22.381Z,22.90
2023-02-23T16:45:17.680Z,23.00
2023-02-23T16:48:14.481Z,23.00
2023-02-23T16:51:15.176Z,23.10
2023-02-23T16:54:09.832Z,23.20
2023-02-23T16:57:06.026Z,23.20
2023-02-23T17:00:00.396Z,23.30
2023-02-23T17:02:54.530Z,23.30
2023-02-23T17:05:47.774Z,23.30
2023-02-23T17:08:45.944Z,23.30
2023-02-23T17:11:47.100Z,23.40
2023-02-23T17:14:41.161Z,23.30
2023-02-23T17:17:34.543Z,23.30
2023-02-23T17:20:29.503Z,23.30
2023-02-23T17:23:26.957Z,23.30
2023-02-23T17:26:21.928Z,23.30
2023-02-23T17:29:16.411Z,23.30
2023-02-23T17:32:09.880Z,23.20
2023-02-23T17:35:02.810Z,23.20
2023-02-23T17:37:55.858Z,23.20
2023-02-23T17:40:49.946Z,23.10
2023-02-23T17:43:42.975Z,23.10
2023-02-23T17:46:37.069Z,23.10
2023-02-23T17:49:30.457Z,23.00
2023-02-23T17:52:23.864Z,23.00
2023-02-23T17:55:16.929Z,23.00
2023-02-23T17:58:10.161Z,22.90
2023-02-23T18:01:06.821Z,22.90
2023-02-23T18:04:03.094Z,22.80
2023-02-23T18:06:56.745Z,22.70
2023-02-23T18:09:50.546Z,22.70
2023-02-23T18:12:43.699Z,22.60
2023-02-23T18:15:36.774Z,22.60
2023-02-23T18:18:30.035Z,22.60
2023-02-23T18:21:25.705Z,22.60
2023-02-23T18:24:18.724Z,22.60
2023-02-23T18:27:12.622Z,22.50
2023-02-23T18:30:06.659Z,22.60
2023-02-23T18:33:00.698Z,22.60
2023-02-23T18:35:53.410Z,22.50
2023-02-23T18:38:48.294Z,22.50
2023-02-23T18:41:42.276Z,22.50
2023-02-23T18:44:35.787Z,22.50
2023-02-23T18:47:29.790Z,22.50
2023-02-23T18:50:26.343Z,22.50
2023-02-23T18:53:19.831Z,22.40
2023-02-23T18:56:16.233Z,22.50
2023-02-23T18:59:10.018Z,22.50
2023-02-23T19:02:02.602Z,22.50
2023-02-23T19:05:02.801Z,22.50
2023-02-23T19:07:55.860Z,22.40
2023-02-23T19:10:48.615Z,22.40
2023-02-23T19:13:43.479Z,22.40
2023-02-23T19:16:37.515Z,22.40
2023-02-23T19:19:30.730Z,22.40
2023-02-23T19:22:24.377Z,22.40
2023-02-23T19:25:18.527Z,22.40
2023-02-23T19:28:12.849Z,22.40
2023-02-23T19:31:09.611Z,22.40
2023-02-23T19:34:04.726Z,22.30
2023-02-23T19:36:57.631Z,22.30
2023-02-23T19:39:50.784Z,22.30
2023-02-23T19:42:45.935Z,22.40
2023-02-23T19:45:40.832Z,22.30
2023-02-23T19:48:35.766Z,22.40
2023-02-23T19:51:28.823Z,22.30
2023-02-23T19:54:22.181Z,22.30
2023-02-23T19:57:16.112Z,22.30
2023-02-23T20:00:11.964Z,22.30
2023-02-23T20:03:06.506Z,22.30
2023-02-23T20:06:04.912Z,22.20
2023-02-23T20:09:00.220Z,22.20
2023-02-23T20:11:56.080Z,22.20
2023-02-23T20:14:49.552Z,22.20
2023-02-23T20:17:42.900Z,22.20
2023-02-23T20:20:36.906Z,22.20
2023-02-23T20:23:31.022Z,22.20
2023-02-23T20:26:26.378Z,22.20
2023-02-23T20:29:19.946Z,22.20
2023-02-23T20:32:12.987Z,22.10
2023-02-23T20:35:06.761Z,22.10
2023-02-23T20:37:59.946Z,22.10
2023-02-23T20:40:54.290Z,22.10
2023-02-23T20:43:47.902Z,22.10
2023-02-23T20:46:41.827Z,22.10
2023-02-23T20:49:34.895Z,22.10
2023-02-23T20:52:28.173Z,22.10
2023-02-23T20:55:26.312Z,22.00
2023-02-23T20:58:26.159Z,22.00
2023-02-23T21:01:23.689Z,22.00
2023-02-23T21:04:16.988Z,22.00
2023-02-23T21:07:10.196Z,22.00
2023-02-23T21:10:03.851Z,22.00
2023-02-23T21:12:57.021Z,22.00
2023-02-23T21:16:01.039Z,22.00
2023-02-23T21:19:04.088Z,22.00
2023-02-23T21:21:58.696Z,22.00
2023-02-23T21:24:51.617Z,22.00
2023-02-23T21:27:45.090Z,22.00
2023-02-23T21:30:38.006Z,22.00
2023-02-23T21:33:32.567Z,22.00
2023-02-23T21:36:25.801Z,22.00
2023-02-23T21:39:18.918Z,22.00
2023-02-23T21:42:11.929Z,21.90
2023-02-23T21:45:05.688Z,21.90
2023-02-23T21:47:58.647Z,21.90
2023-02-23T21:50:53.471Z,21.90
2023-02-23T21:53:47.911Z,21.90
2023-02-23T21:56:41.108Z,21.90
2023-02-23T21:59:35.955Z,21.90
2023-02-23T22:02:31.976Z,21.90
2023-02-23T22:05:25.159Z,21.90
2023-02-23T22:08:19.373Z,21.90
2023-02-23T22:11:17.278Z,21.90
2023-02-23T22:14:11.372Z,21.90
2023-02-23T22:17:06.316Z,21.90
2023-02-23T22:19:59.846Z,21.80
2023-02-23T22:22:53.094Z,21.80
2023-02-23T22:25:47.256Z,21.90
2023-02-23T22:28:40.536Z,21.90
2023-02-23T22:31:35.180Z,21.80
2023-02-23T22:34:28.302Z,21.80
2023-02-23T22:37:31.428Z,21.80
2023-02-23T22:40:25.161Z,21.80
2023-02-23T22:43:21.901Z,21.80
2023-02-23T22:46:16.495Z,21.80
2023-02-23T22:49:11.775Z,21.80
2023-02-23T22:52:05.781Z,21.80
2023-02-23T22:54:59.525Z,21.80
2023-02-23T22:57:53.137Z,21.70
2023-02-23T23:01:01.948Z,21.80
2023-02-23T23:03:54.471Z,21.80
2023-02-23T23:06:48.093Z,21.80
2023-02-23T23:09:41.329Z,21.80
2023-02-23T23:12:35.217Z,21.80
2023-02-23T23:15:28.173Z,21.70
2023-02-23T23:18:24.437Z,21.80
2023-02-23T23:21:21.901Z,21.80
2023-02-23T23:24:15.392Z,21.70
2023-02-23T23:27:09.096Z,21.70
2023-02-23T23:30:05.467Z,21.70
2023-02-23T23:32:59.373Z,21.70
2023-02-23T23:35:54.126Z,21.70
2023-02-23T23:38:47.236Z,21.70
2023-02-23T23:41:42.946Z,21.70
2023-02-23T23:44:36.001Z,21.70
2023-02-23T23:47:30.403Z,21.70
2023-02-23T23:50:26.660Z,21.70
2023-02-23T23:53:21.154Z,21.70
2023-02-23T23:56:15.270Z,21.70
2023-02-23T23:59:11.479Z,21.70
